sensor_id;sensor_type;location;lat;lon;timestamp;pressure;altitude;pressure_sealevel;temperature;humidity
82512;BME280;72152;65.012;25.464;2024-01-27T00:03:31;100838.35;;;-5.46;72.81
82512;BME280;72152;65.012;25.464;2024-01-27T00:06:45;100837.36;;;-5.46;72.85
82512;BME280;72152;65.012;25.464;2024-01-27T00:09:53;100837.86;;;-5.46;72.89
82512;BME280;72152;65.012;25.464;2024-01-27T00:13:03;100837.61;;;-5.45;72.94
82512;BME280;72152;65.012;25.464;2024-01-27T00:16:13;100838.65;;;-5.44;72.92
82512;BME280;72152;65.012;25.464;2024-01-27T00:19:21;100839.66;;;-5.45;72.81
82512;BME280;72152;65.012;25.464;2024-01-27T00:22:37;100835.45;;;-5.46;72.94
82512;BME280;72152;65.012;25.464;2024-01-27T00:25:54;100833.03;;;-5.46;72.97
82512;BME280;72152;65.012;25.464;2024-01-27T00:29:07;100832.86;;;-5.47;73.04
82512;BME280;72152;65.012;25.464;2024-01-27T00:32:15;100830.41;;;-5.45;72.92
82512;BME280;72152;65.012;25.464;2024-01-27T00:35:27;100825.23;;;-5.43;72.89
82512;BME280;72152;65.012;25.464;2024-01-27T00:38:41;100817.21;;;-5.45;73.04
82512;BME280;72152;65.012;25.464;2024-01-27T00:41:50;100820.20;;;-5.46;73.09
82512;BME280;72152;65.012;25.464;2024-01-27T00:44:59;100815.77;;;-5.46;73.18
82512;BME280;72152;65.012;25.464;2024-01-27T00:48:17;100818.85;;;-5.46;73.05
82512;BME280;72152;65.012;25.464;2024-01-27T00:51:26;100818.86;;;-5.46;73.20
82512;BME280;72152;65.012;25.464;2024-01-27T00:54:32;100813.77;;;-5.45;73.08
82512;BME280;72152;65.012;25.464;2024-01-27T00:57:42;100809.29;;;-5.43;73.12
82512;BME280;72152;65.012;25.464;2024-01-27T01:00:55;100809.16;;;-5.42;73.09
82512;BME280;72152;65.012;25.464;2024-01-27T01:04:16;100807.23;;;-5.42;73.21
82512;BME280;72152;65.012;25.464;2024-01-27T01:07:29;100797.98;;;-5.42;73.06
82512;BME280;72152;65.012;25.464;2024-01-27T01:10:41;100793.25;;;-5.41;73.08
82512;BME280;72152;65.012;25.464;2024-01-27T01:14:04;100785.62;;;-5.40;73.01
82512;BME280;72152;65.012;25.464;2024-01-27T01:17:11;100788.39;;;-5.39;73.10
82512;BME280;72152;65.012;25.464;2024-01-27T01:20:32;100778.98;;;-5.39;73.04
82512;BME280;72152;65.012;25.464;2024-01-27T01:23:37;100774.95;;;-5.41;72.96
82512;BME280;72152;65.012;25.464;2024-01-27T01:26:44;100775.20;;;-5.42;73.04
82512;BME280;72152;65.012;25.464;2024-01-27T01:30:01;100776.64;;;-5.44;72.90
82512;BME280;72152;65.012;25.464;2024-01-27T01:33:10;100779.29;;;-5.45;72.86
82512;BME280;72152;65.012;25.464;2024-01-27T01:36:29;100768.88;;;-5.45;72.94
82512;BME280;72152;65.012;25.464;2024-01-27T01:39:41;100765.11;;;-5.45;73.03
82512;BME280;72152;65.012;25.464;2024-01-27T01:42:49;100767.14;;;-5.45;73.06
82512;BME280;72152;65.012;25.464;2024-01-27T01:45:49;100765.89;;;-5.46;73.08
82512;BME280;72152;65.012;25.464;2024-01-27T01:48:57;100763.02;;;-5.48;73.09
82512;BME280;72152;65.012;25.464;2024-01-27T01:52:06;100762.02;;;-5.50;73.07
82512;BME280;72152;65.012;25.464;2024-01-27T01:55:26;100772.52;;;-5.52;73.25
82512;BME280;72152;65.012;25.464;2024-01-27T01:58:35;100763.08;;;-5.52;73.29
82512;BME280;72152;65.012;25.464;2024-01-27T02:01:39;100764.54;;;-5.54;73.31
82512;BME280;72152;65.012;25.464;2024-01-27T02:04:53;100755.42;;;-5.54;73.51
82512;BME280;72152;65.012;25.464;2024-01-27T02:08:04;100757.13;;;-5.57;73.46
82512;BME280;72152;65.012;25.464;2024-01-27T02:11:17;100745.27;;;-5.58;73.58
82512;BME280;72152;65.012;25.464;2024-01-27T02:14:28;100742.89;;;-5.55;73.47
82512;BME280;72152;65.012;25.464;2024-01-27T02:17:21;100735.35;;;-5.55;73.66
82512;BME280;72152;65.012;25.464;2024-01-27T02:20:25;100738.05;;;-5.55;73.48
82512;BME280;72152;65.012;25.464;2024-01-27T02:23:34;100734.31;;;-5.57;73.71
82512;BME280;72152;65.012;25.464;2024-01-27T02:26:51;100737.35;;;-5.58;73.70
82512;BME280;72152;65.012;25.464;2024-01-27T02:29:56;100741.77;;;-5.59;73.76
82512;BME280;72152;65.012;25.464;2024-01-27T02:33:04;100736.85;;;-5.58;73.92
82512;BME280;72152;65.012;25.464;2024-01-27T02:36:14;100740.39;;;-5.56;73.96
82512;BME280;72152;65.012;25.464;2024-01-27T02:39:24;100738.88;;;-5.56;74.04
82512;BME280;72152;65.012;25.464;2024-01-27T02:42:39;100740.00;;;-5.57;74.27
82512;BME280;72152;65.012;25.464;2024-01-27T02:45:47;100739.27;;;-5.55;74.22
82512;BME280;72152;65.012;25.464;2024-01-27T02:48:57;100735.73;;;-5.54;74.44
82512;BME280;72152;65.012;25.464;2024-01-27T02:52:07;100734.52;;;-5.54;74.51
82512;BME280;72152;65.012;25.464;2024-01-27T02:55:16;100733.98;;;-5.55;74.62
82512;BME280;72152;65.012;25.464;2024-01-27T02:58:25;100728.55;;;-5.56;74.84
82512;BME280;72152;65.012;25.464;2024-01-27T03:01:39;100726.87;;;-5.59;74.97
82512;BME280;72152;65.012;25.464;2024-01-27T03:04:53;100727.41;;;-5.61;74.97
82512;BME280;72152;65.012;25.464;2024-01-27T03:08:02;100725.94;;;-5.60;75.05
82512;BME280;72152;65.012;25.464;2024-01-27T03:14:27;100731.45;;;-5.62;75.39
82512;BME280;72152;65.012;25.464;2024-01-27T03:17:37;100729.83;;;-5.61;75.43
82512;BME280;72152;65.012;25.464;2024-01-27T03:20:43;100737.86;;;-5.58;75.60
82512;BME280;72152;65.012;25.464;2024-01-27T03:23:52;100733.03;;;-5.59;75.66
82512;BME280;72152;65.012;25.464;2024-01-27T03:27:01;100731.07;;;-5.57;75.57
82512;BME280;72152;65.012;25.464;2024-01-27T03:30:16;100724.73;;;-5.55;75.60
82512;BME280;72152;65.012;25.464;2024-01-27T03:33:25;100726.84;;;-5.53;75.67
82512;BME280;72152;65.012;25.464;2024-01-27T03:36:31;100731.16;;;-5.53;75.56
82512;BME280;72152;65.012;25.464;2024-01-27T03:39:35;100728.61;;;-5.50;75.77
82512;BME280;72152;65.012;25.464;2024-01-27T03:42:48;100732.29;;;-5.49;75.79
82512;BME280;72152;65.012;25.464;2024-01-27T03:45:56;100731.16;;;-5.47;75.67
82512;BME280;72152;65.012;25.464;2024-01-27T03:49:07;100731.63;;;-5.45;75.62
82512;BME280;72152;65.012;25.464;2024-01-27T03:52:22;100734.39;;;-5.45;75.82
82512;BME280;72152;65.012;25.464;2024-01-27T03:55:32;100738.77;;;-5.46;75.82
82512;BME280;72152;65.012;25.464;2024-01-27T03:58:44;100743.23;;;-5.46;75.75
82512;BME280;72152;65.012;25.464;2024-01-27T04:05:07;100740.88;;;-5.45;75.98
82512;BME280;72152;65.012;25.464;2024-01-27T04:08:24;100739.91;;;-5.44;76.09
82512;BME280;72152;65.012;25.464;2024-01-27T04:11:34;100741.00;;;-5.41;76.03
82512;BME280;72152;65.012;25.464;2024-01-27T04:14:47;100745.52;;;-5.37;75.96
82512;BME280;72152;65.012;25.464;2024-01-27T04:17:55;100746.77;;;-5.36;75.98
82512;BME280;72152;65.012;25.464;2024-01-27T04:21:04;100743.66;;;-5.36;76.10
82512;BME280;72152;65.012;25.464;2024-01-27T04:24:14;100747.46;;;-5.36;75.91
82512;BME280;72152;65.012;25.464;2024-01-27T04:27:22;100752.65;;;-5.32;76.04
82512;BME280;72152;65.012;25.464;2024-01-27T04:30:20;100754.14;;;-5.30;76.17
82512;BME280;72152;65.012;25.464;2024-01-27T04:33:35;100757.56;;;-5.30;76.21
82512;BME280;72152;65.012;25.464;2024-01-27T04:36:49;100757.05;;;-5.30;76.24
82512;BME280;72152;65.012;25.464;2024-01-27T04:39:59;100760.55;;;-5.29;76.26
82512;BME280;72152;65.012;25.464;2024-01-27T04:43:07;100760.29;;;-5.28;76.08
82512;BME280;72152;65.012;25.464;2024-01-27T04:46:16;100762.27;;;-5.26;76.12
82512;BME280;72152;65.012;25.464;2024-01-27T04:49:26;100769.06;;;-5.24;76.05
82512;BME280;72152;65.012;25.464;2024-01-27T04:52:31;100775.19;;;-5.23;76.09
82512;BME280;72152;65.012;25.464;2024-01-27T04:55:39;100773.64;;;-5.23;76.22
82512;BME280;72152;65.012;25.464;2024-01-27T04:58:51;100775.92;;;-5.22;76.04
82512;BME280;72152;65.012;25.464;2024-01-27T05:02:00;100779.80;;;-5.20;76.05
82512;BME280;72152;65.012;25.464;2024-01-27T05:05:09;100779.92;;;-5.18;76.08
82512;BME280;72152;65.012;25.464;2024-01-27T05:08:20;100778.77;;;-5.17;76.17
82512;BME280;72152;65.012;25.464;2024-01-27T05:11:31;100784.34;;;-5.16;76.16
82512;BME280;72152;65.012;25.464;2024-01-27T05:14:42;100782.04;;;-5.14;76.15
82512;BME280;72152;65.012;25.464;2024-01-27T05:17:52;100779.99;;;-5.11;76.27
82512;BME280;72152;65.012;25.464;2024-01-27T05:21:02;100779.36;;;-5.05;76.26
82512;BME280;72152;65.012;25.464;2024-01-27T05:24:12;100775.67;;;-5.00;76.27
82512;BME280;72152;65.012;25.464;2024-01-27T05:27:24;100778.09;;;-4.97;76.14
82512;BME280;72152;65.012;25.464;2024-01-27T05:30:42;100782.87;;;-4.94;76.27
82512;BME280;72152;65.012;25.464;2024-01-27T05:33:56;100780.42;;;-4.93;76.30
82512;BME280;72152;65.012;25.464;2024-01-27T05:37:05;100775.11;;;-4.92;76.25
82512;BME280;72152;65.012;25.464;2024-01-27T05:40:13;100777.80;;;-4.90;76.10
82512;BME280;72152;65.012;25.464;2024-01-27T05:43:19;100784.52;;;-4.90;76.07
82512;BME280;72152;65.012;25.464;2024-01-27T05:46:33;100786.00;;;-4.88;75.91
82512;BME280;72152;65.012;25.464;2024-01-27T05:49:41;100790.14;;;-4.88;75.78
82512;BME280;72152;65.012;25.464;2024-01-27T05:52:54;100806.77;;;-4.85;75.75
82512;BME280;72152;65.012;25.464;2024-01-27T05:56:08;100805.45;;;-4.84;75.49
82512;BME280;72152;65.012;25.464;2024-01-27T05:59:18;100808.06;;;-4.87;75.32
82512;BME280;72152;65.012;25.464;2024-01-27T06:02:26;100807.44;;;-4.86;75.44
82512;BME280;72152;65.012;25.464;2024-01-27T06:05:36;100801.11;;;-4.85;75.34
82512;BME280;72152;65.012;25.464;2024-01-27T06:08:48;100809.14;;;-4.85;75.26
82512;BME280;72152;65.012;25.464;2024-01-27T06:11:57;100821.78;;;-4.87;75.19
82512;BME280;72152;65.012;25.464;2024-01-27T06:15:04;100828.02;;;-4.89;75.29
82512;BME280;72152;65.012;25.464;2024-01-27T06:18:17;100832.58;;;-4.90;75.16
82512;BME280;72152;65.012;25.464;2024-01-27T06:21:26;100822.67;;;-4.89;75.31
82512;BME280;72152;65.012;25.464;2024-01-27T06:24:36;100826.98;;;-4.89;75.25
82512;BME280;72152;65.012;25.464;2024-01-27T06:27:49;100836.34;;;-4.84;75.28
82512;BME280;72152;65.012;25.464;2024-01-27T06:30:58;100823.42;;;-4.79;75.24
82512;BME280;72152;65.012;25.464;2024-01-27T06:34:11;100826.10;;;-4.78;75.13
82512;BME280;72152;65.012;25.464;2024-01-27T06:37:21;100823.89;;;-4.77;75.02
82512;BME280;72152;65.012;25.464;2024-01-27T06:40:26;100822.84;;;-4.77;75.01
82512;BME280;72152;65.012;25.464;2024-01-27T06:43:39;100819.91;;;-4.78;74.91
82512;BME280;72152;65.012;25.464;2024-01-27T06:46:49;100828.89;;;-4.77;74.85
82512;BME280;72152;65.012;25.464;2024-01-27T06:49:57;100834.77;;;-4.76;74.94
82512;BME280;72152;65.012;25.464;2024-01-27T06:53:07;100853.34;;;-4.75;74.97
82512;BME280;72152;65.012;25.464;2024-01-27T06:56:21;100852.83;;;-4.75;74.94
82512;BME280;72152;65.012;25.464;2024-01-27T06:59:30;100856.63;;;-4.75;74.89
82512;BME280;72152;65.012;25.464;2024-01-27T07:02:37;100860.05;;;-4.75;74.94
82512;BME280;72152;65.012;25.464;2024-01-27T07:08:58;100859.53;;;-4.69;74.92
82512;BME280;72152;65.012;25.464;2024-01-27T07:12:07;100861.20;;;-4.67;74.90
82512;BME280;72152;65.012;25.464;2024-01-27T07:15:14;100862.92;;;-4.64;74.97
82512;BME280;72152;65.012;25.464;2024-01-27T07:18:19;100849.58;;;-4.60;75.04
82512;BME280;72152;65.012;25.464;2024-01-27T07:21:24;100854.57;;;-4.60;74.95
82512;BME280;72152;65.012;25.464;2024-01-27T07:24:25;100862.57;;;-4.58;74.86
82512;BME280;72152;65.012;25.464;2024-01-27T07:27:33;100863.28;;;-4.55;74.81
82512;BME280;72152;65.012;25.464;2024-01-27T07:30:40;100864.05;;;-4.51;74.78
82512;BME280;72152;65.012;25.464;2024-01-27T07:33:52;100868.40;;;-4.50;74.76
82512;BME280;72152;65.012;25.464;2024-01-27T07:36:53;100870.09;;;-4.47;74.77
82512;BME280;72152;65.012;25.464;2024-01-27T07:39:53;100861.34;;;-4.44;74.72
82512;BME280;72152;65.012;25.464;2024-01-27T07:43:01;100864.36;;;-4.42;74.87
82512;BME280;72152;65.012;25.464;2024-01-27T07:46:08;100869.60;;;-4.41;74.80
82512;BME280;72152;65.012;25.464;2024-01-27T07:49:14;100885.59;;;-4.38;74.73
82512;BME280;72152;65.012;25.464;2024-01-27T07:52:18;100887.04;;;-4.37;74.79
82512;BME280;72152;65.012;25.464;2024-01-27T07:55:22;100891.20;;;-4.36;74.71
82512;BME280;72152;65.012;25.464;2024-01-27T07:58:38;100893.23;;;-4.36;74.58
82512;BME280;72152;65.012;25.464;2024-01-27T08:01:43;100892.17;;;-4.34;74.67
82512;BME280;72152;65.012;25.464;2024-01-27T08:04:49;100902.72;;;-4.30;74.62
82512;BME280;72152;65.012;25.464;2024-01-27T08:07:52;100913.27;;;-4.26;74.82
82512;BME280;72152;65.012;25.464;2024-01-27T08:11:04;100915.70;;;-4.22;74.77
82512;BME280;72152;65.012;25.464;2024-01-27T08:14:15;100924.08;;;-4.20;74.78
82512;BME280;72152;65.012;25.464;2024-01-27T08:17:18;100927.98;;;-4.18;74.75
82512;BME280;72152;65.012;25.464;2024-01-27T08:23:26;100941.47;;;-4.08;74.74
82512;BME280;72152;65.012;25.464;2024-01-27T08:26:32;100944.84;;;-4.03;74.74
82512;BME280;72152;65.012;25.464;2024-01-27T08:29:36;100952.48;;;-3.96;74.74
82512;BME280;72152;65.012;25.464;2024-01-27T08:32:38;100952.21;;;-3.91;74.73
82512;BME280;72152;65.012;25.464;2024-01-27T08:35:41;100958.23;;;-3.89;74.70
82512;BME280;72152;65.012;25.464;2024-01-27T08:38:48;100961.36;;;-3.85;74.74
82512;BME280;72152;65.012;25.464;2024-01-27T08:42:01;100959.59;;;-3.80;74.67
82512;BME280;72152;65.012;25.464;2024-01-27T08:45:12;100953.23;;;-3.77;74.66
82512;BME280;72152;65.012;25.464;2024-01-27T08:48:28;100956.79;;;-3.75;74.70
82512;BME280;72152;65.012;25.464;2024-01-27T08:51:36;100951.46;;;-3.72;74.79
82512;BME280;72152;65.012;25.464;2024-01-27T08:54:42;100947.67;;;-3.69;74.80
82512;BME280;72152;65.012;25.464;2024-01-27T08:57:48;100950.60;;;-3.66;74.78
82512;BME280;72152;65.012;25.464;2024-01-27T09:00:56;100951.13;;;-3.66;74.84
82512;BME280;72152;65.012;25.464;2024-01-27T09:04:06;100951.91;;;-3.64;74.83
82512;BME280;72152;65.012;25.464;2024-01-27T09:07:08;100950.88;;;-3.61;74.88
82512;BME280;72152;65.012;25.464;2024-01-27T09:10:12;100950.27;;;-3.57;74.90
82512;BME280;72152;65.012;25.464;2024-01-27T09:13:27;100947.44;;;-3.52;75.17
82512;BME280;72152;65.012;25.464;2024-01-27T09:16:30;100963.84;;;-3.48;75.12
82512;BME280;72152;65.012;25.464;2024-01-27T09:19:39;100969.05;;;-3.41;75.33
82512;BME280;72152;65.012;25.464;2024-01-27T09:22:48;100970.83;;;-3.31;75.35
82512;BME280;72152;65.012;25.464;2024-01-27T09:25:56;100964.23;;;-3.23;75.30
82512;BME280;72152;65.012;25.464;2024-01-27T09:29:01;100951.83;;;-3.14;75.39
82512;BME280;72152;65.012;25.464;2024-01-27T09:32:05;100952.23;;;-3.09;75.29
82512;BME280;72152;65.012;25.464;2024-01-27T09:35:14;100954.94;;;-3.07;75.21
82512;BME280;72152;65.012;25.464;2024-01-27T09:38:22;100953.41;;;-3.03;75.27
82512;BME280;72152;65.012;25.464;2024-01-27T09:41:24;100950.86;;;-3.00;75.19
82512;BME280;72152;65.012;25.464;2024-01-27T09:44:38;100951.45;;;-2.98;75.30
82512;BME280;72152;65.012;25.464;2024-01-27T09:47:52;100943.63;;;-2.94;75.27
82512;BME280;72152;65.012;25.464;2024-01-27T09:51:00;100938.86;;;-2.86;75.39
82512;BME280;72152;65.012;25.464;2024-01-27T09:54:09;100945.73;;;-2.80;75.47
82512;BME280;72152;65.012;25.464;2024-01-27T09:57:33;100943.33;;;-2.73;75.34
82512;BME280;72152;65.012;25.464;2024-01-27T10:00:41;100934.44;;;-2.69;75.41
82512;BME280;72152;65.012;25.464;2024-01-27T10:03:43;100930.41;;;-2.64;75.30
82512;BME280;72152;65.012;25.464;2024-01-27T10:06:50;100925.55;;;-2.58;75.34
82512;BME280;72152;65.012;25.464;2024-01-27T10:09:59;100918.02;;;-2.50;75.12
82512;BME280;72152;65.012;25.464;2024-01-27T10:13:16;100913.86;;;-2.47;75.09
82512;BME280;72152;65.012;25.464;2024-01-27T10:16:26;100900.64;;;-2.47;75.16
82512;BME280;72152;65.012;25.464;2024-01-27T10:19:34;100896.40;;;-2.45;75.10
82512;BME280;72152;65.012;25.464;2024-01-27T10:22:44;100896.52;;;-2.43;75.25
82512;BME280;72152;65.012;25.464;2024-01-27T10:25:52;100893.83;;;-2.42;75.36
82512;BME280;72152;65.012;25.464;2024-01-27T10:29:05;100888.45;;;-2.36;75.56
82512;BME280;72152;65.012;25.464;2024-01-27T10:32:14;100883.22;;;-2.33;75.41
82512;BME280;72152;65.012;25.464;2024-01-27T10:35:20;100882.85;;;-2.28;75.40
82512;BME280;72152;65.012;25.464;2024-01-27T10:38:32;100884.61;;;-2.20;75.39
82512;BME280;72152;65.012;25.464;2024-01-27T10:41:44;100884.08;;;-2.10;75.44
82512;BME280;72152;65.012;25.464;2024-01-27T10:44:53;100887.71;;;-2.03;75.55
82512;BME280;72152;65.012;25.464;2024-01-27T10:48:14;100892.09;;;-1.98;75.48
82512;BME280;72152;65.012;25.464;2024-01-27T10:51:23;100900.36;;;-1.91;75.65
82512;BME280;72152;65.012;25.464;2024-01-27T10:54:39;100906.15;;;-1.82;75.77
82512;BME280;72152;65.012;25.464;2024-01-27T10:57:48;100912.68;;;-1.72;75.76
82512;BME280;72152;65.012;25.464;2024-01-27T11:00:58;100919.56;;;-1.65;75.59
82512;BME280;72152;65.012;25.464;2024-01-27T11:04:19;100927.01;;;-1.54;75.80
82512;BME280;72152;65.012;25.464;2024-01-27T11:07:27;100935.91;;;-1.48;75.71
82512;BME280;72152;65.012;25.464;2024-01-27T11:10:36;100941.90;;;-1.45;75.53
82512;BME280;72152;65.012;25.464;2024-01-27T11:13:49;100947.73;;;-1.43;75.73
82512;BME280;72152;65.012;25.464;2024-01-27T11:16:54;100957.52;;;-1.37;75.74
82512;BME280;72152;65.012;25.464;2024-01-27T11:20:05;100959.90;;;-1.34;75.66
82512;BME280;72152;65.012;25.464;2024-01-27T11:23:19;100963.61;;;-1.32;75.67
82512;BME280;72152;65.012;25.464;2024-01-27T11:26:25;100969.71;;;-1.34;75.83
82512;BME280;72152;65.012;25.464;2024-01-27T11:29:28;100968.67;;;-1.34;75.67
82512;BME280;72152;65.012;25.464;2024-01-27T11:32:32;100979.95;;;-1.33;75.81
82512;BME280;72152;65.012;25.464;2024-01-27T11:35:43;100984.16;;;-1.31;75.63
82512;BME280;72152;65.012;25.464;2024-01-27T11:38:53;100983.34;;;-1.31;75.79
82512;BME280;72152;65.012;25.464;2024-01-27T11:42:03;100989.61;;;-1.30;75.91
82512;BME280;72152;65.012;25.464;2024-01-27T11:45:17;100984.65;;;-1.28;75.74
82512;BME280;72152;65.012;25.464;2024-01-27T11:48:29;100992.14;;;-1.27;75.86
82512;BME280;72152;65.012;25.464;2024-01-27T11:51:36;101012.80;;;-1.28;75.53
82512;BME280;72152;65.012;25.464;2024-01-27T11:54:46;101021.27;;;-1.32;75.70
82512;BME280;72152;65.012;25.464;2024-01-27T11:57:54;101032.20;;;-1.34;75.65
82512;BME280;72152;65.012;25.464;2024-01-27T12:01:01;101044.63;;;-1.37;75.61
82512;BME280;72152;65.012;25.464;2024-01-27T12:04:11;101044.65;;;-1.37;75.63
82512;BME280;72152;65.012;25.464;2024-01-27T12:07:19;101044.14;;;-1.33;75.66
82512;BME280;72152;65.012;25.464;2024-01-27T12:10:21;101033.91;;;-1.34;75.72
82512;BME280;72152;65.012;25.464;2024-01-27T12:13:26;101018.00;;;-1.35;75.90
82512;BME280;72152;65.012;25.464;2024-01-27T12:19:54;101018.16;;;-1.35;75.88
82512;BME280;72152;65.012;25.464;2024-01-27T12:23:09;101017.14;;;-1.35;75.67
82512;BME280;72152;65.012;25.464;2024-01-27T12:26:23;101019.98;;;-1.33;75.91
82512;BME280;72152;65.012;25.464;2024-01-27T12:29:35;101024.13;;;-1.33;75.92
82512;BME280;72152;65.012;25.464;2024-01-27T12:32:48;101028.16;;;-1.35;75.87
82512;BME280;72152;65.012;25.464;2024-01-27T12:35:51;101042.28;;;-1.39;75.97
82512;BME280;72152;65.012;25.464;2024-01-27T12:39:00;101027.68;;;-1.42;76.15
82512;BME280;72152;65.012;25.464;2024-01-27T12:42:06;101018.48;;;-1.43;76.15
82512;BME280;72152;65.012;25.464;2024-01-27T12:45:11;101028.92;;;-1.44;75.99
82512;BME280;72152;65.012;25.464;2024-01-27T12:48:23;101032.51;;;-1.45;76.13
82512;BME280;72152;65.012;25.464;2024-01-27T12:51:27;101037.50;;;-1.45;76.28
82512;BME280;72152;65.012;25.464;2024-01-27T12:54:33;101033.36;;;-1.46;76.28
82512;BME280;72152;65.012;25.464;2024-01-27T12:57:56;101033.54;;;-1.48;76.46
82512;BME280;72152;65.012;25.464;2024-01-27T13:01:01;101045.40;;;-1.46;76.23
82512;BME280;72152;65.012;25.464;2024-01-27T13:04:10;101049.96;;;-1.45;76.39
82512;BME280;72152;65.012;25.464;2024-01-27T13:07:18;101059.33;;;-1.44;76.29
82512;BME280;72152;65.012;25.464;2024-01-27T13:10:21;101072.20;;;-1.45;76.39
82512;BME280;72152;65.012;25.464;2024-01-27T13:13:30;101076.80;;;-1.46;76.27
82512;BME280;72152;65.012;25.464;2024-01-27T13:16:36;101086.31;;;-1.46;76.19
82512;BME280;72152;65.012;25.464;2024-01-27T13:19:46;101100.13;;;-1.46;76.22
82512;BME280;72152;65.012;25.464;2024-01-27T13:22:46;101098.89;;;-1.46;76.16
82512;BME280;72152;65.012;25.464;2024-01-27T13:25:56;101080.98;;;-1.45;76.39
82512;BME280;72152;65.012;25.464;2024-01-27T13:29:08;101059.23;;;-1.45;76.39
82512;BME280;72152;65.012;25.464;2024-01-27T13:32:16;101039.73;;;-1.46;76.41
82512;BME280;72152;65.012;25.464;2024-01-27T13:35:22;101028.34;;;-1.49;76.46
82512;BME280;72152;65.012;25.464;2024-01-27T13:38:25;101018.02;;;-1.52;76.46
82512;BME280;72152;65.012;25.464;2024-01-27T13:41:28;101022.00;;;-1.56;76.47
82512;BME280;72152;65.012;25.464;2024-01-27T13:44:35;101017.34;;;-1.59;76.54
82512;BME280;72152;65.012;25.464;2024-01-27T13:47:46;101020.48;;;-1.62;76.67
82512;BME280;72152;65.012;25.464;2024-01-27T13:50:57;101033.09;;;-1.65;76.60
82512;BME280;72152;65.012;25.464;2024-01-27T13:54:04;101046.23;;;-1.65;76.70
82512;BME280;72152;65.012;25.464;2024-01-27T13:57:14;101049.33;;;-1.65;76.68
82512;BME280;72152;65.012;25.464;2024-01-27T14:00:23;101053.73;;;-1.63;76.63
82512;BME280;72152;65.012;25.464;2024-01-27T14:03:33;101055.92;;;-1.60;76.80
82512;BME280;72152;65.012;25.464;2024-01-27T14:06:44;101053.31;;;-1.57;76.74
82512;BME280;72152;65.012;25.464;2024-01-27T14:09:53;101047.20;;;-1.55;76.82
82512;BME280;72152;65.012;25.464;2024-01-27T14:13:01;101035.13;;;-1.55;76.60
82512;BME280;72152;65.012;25.464;2024-01-27T14:16:07;101029.33;;;-1.57;76.58
82512;BME280;72152;65.012;25.464;2024-01-27T14:19:17;101050.86;;;-1.62;76.62
82512;BME280;72152;65.012;25.464;2024-01-27T14:22:26;101056.29;;;-1.63;76.63
82512;BME280;72152;65.012;25.464;2024-01-27T14:25:33;101049.44;;;-1.62;76.82
82512;BME280;72152;65.012;25.464;2024-01-27T14:28:41;101041.52;;;-1.62;76.70
82512;BME280;72152;65.012;25.464;2024-01-27T14:31:44;101032.64;;;-1.63;76.80
82512;BME280;72152;65.012;25.464;2024-01-27T14:34:52;101015.12;;;-1.65;76.87
82512;BME280;72152;65.012;25.464;2024-01-27T14:37:56;101019.11;;;-1.69;77.03
82512;BME280;72152;65.012;25.464;2024-01-27T14:41:00;101017.15;;;-1.70;76.99
82512;BME280;72152;65.012;25.464;2024-01-27T14:47:21;101009.94;;;-1.66;77.00
82512;BME280;72152;65.012;25.464;2024-01-27T14:50:28;101002.96;;;-1.64;76.98
82512;BME280;72152;65.012;25.464;2024-01-27T14:56:53;100996.11;;;-1.59;76.75
82512;BME280;72152;65.012;25.464;2024-01-27T14:59:58;100989.77;;;-1.62;76.96
82512;BME280;72152;65.012;25.464;2024-01-27T15:03:26;101003.33;;;-1.63;76.90
82512;BME280;72152;65.012;25.464;2024-01-27T15:06:30;101004.70;;;-1.63;76.91
82512;BME280;72152;65.012;25.464;2024-01-27T15:09:32;101003.05;;;-1.62;77.00
82512;BME280;72152;65.012;25.464;2024-01-27T15:12:37;100998.02;;;-1.63;76.98
82512;BME280;72152;65.012;25.464;2024-01-27T15:15:42;100991.43;;;-1.63;76.91
82512;BME280;72152;65.012;25.464;2024-01-27T15:18:50;100989.88;;;-1.67;76.92
82512;BME280;72152;65.012;25.464;2024-01-27T15:21:56;101001.41;;;-1.68;76.89
82512;BME280;72152;65.012;25.464;2024-01-27T15:25:05;101002.23;;;-1.68;76.78
82512;BME280;72152;65.012;25.464;2024-01-27T15:28:13;100990.13;;;-1.69;76.87
82512;BME280;72152;65.012;25.464;2024-01-27T15:31:20;100978.55;;;-1.69;76.84
82512;BME280;72152;65.012;25.464;2024-01-27T15:34:24;100957.91;;;-1.71;76.91
82512;BME280;72152;65.012;25.464;2024-01-27T15:37:37;100968.76;;;-1.72;76.91
82512;BME280;72152;65.012;25.464;2024-01-27T15:40:49;100971.60;;;-1.70;76.97
82512;BME280;72152;65.012;25.464;2024-01-27T15:43:57;100955.57;;;-1.70;76.94
82512;BME280;72152;65.012;25.464;2024-01-27T15:47:01;100946.27;;;-1.70;76.93
82512;BME280;72152;65.012;25.464;2024-01-27T15:53:36;100952.44;;;-1.70;77.04
82512;BME280;72152;65.012;25.464;2024-01-27T15:56:45;100961.83;;;-1.72;77.00
82512;BME280;72152;65.012;25.464;2024-01-27T15:59:57;100948.02;;;-1.72;76.96
82512;BME280;72152;65.012;25.464;2024-01-27T16:03:05;100948.59;;;-1.71;77.03
82512;BME280;72152;65.012;25.464;2024-01-27T16:06:09;100933.58;;;-1.72;77.04
82512;BME280;72152;65.012;25.464;2024-01-27T16:09:12;100921.73;;;-1.74;77.05
82512;BME280;72152;65.012;25.464;2024-01-27T16:12:24;100915.77;;;-1.76;77.02
82512;BME280;72152;65.012;25.464;2024-01-27T16:15:31;100910.36;;;-1.77;77.05
82512;BME280;72152;65.012;25.464;2024-01-27T16:18:34;100910.36;;;-1.81;76.94
82512;BME280;72152;65.012;25.464;2024-01-27T16:21:37;100911.98;;;-1.83;77.05
82512;BME280;72152;65.012;25.464;2024-01-27T16:24:43;100921.70;;;-1.85;76.95
82512;BME280;72152;65.012;25.464;2024-01-27T16:27:50;100906.45;;;-1.90;77.04
82512;BME280;72152;65.012;25.464;2024-01-27T16:30:53;100920.48;;;-1.92;77.04
82512;BME280;72152;65.012;25.464;2024-01-27T16:34:03;100917.17;;;-1.96;77.06
82512;BME280;72152;65.012;25.464;2024-01-27T16:37:13;100915.50;;;-1.98;77.20
82512;BME280;72152;65.012;25.464;2024-01-27T16:40:29;100918.45;;;-2.02;77.10
82512;BME280;72152;65.012;25.464;2024-01-27T16:43:31;100931.40;;;-2.01;77.12